sensor_id;sensor_type;location;lat;lon;timestamp;pressure;altitude;pressure_sealevel;temperature;humidity
84083;BME280;74174;52.224;6.878;2023-11-21T00:01:59;100813.00;;;7.63;94.24
84083;BME280;74174;52.224;6.878;2023-11-21T00:04:24;100819.91;;;7.64;93.73
84083;BME280;74174;52.224;6.878;2023-11-21T00:06:50;100822.34;;;7.65;94.11
84083;BME280;74174;52.224;6.878;2023-11-21T00:09:16;100821.59;;;7.72;94.02
84083;BME280;74174;52.224;6.878;2023-11-21T00:11:43;100818.13;;;7.71;94.37
84083;BME280;74174;52.224;6.878;2023-11-21T00:14:08;100810.25;;;7.78;95.01
84083;BME280;74174;52.224;6.878;2023-11-21T00:16:34;100821.28;;;7.81;94.93
84083;BME280;74174;52.224;6.878;2023-11-21T00:18:59;100817.03;;;7.87;95.34
84083;BME280;74174;52.224;6.878;2023-11-21T00:21:25;100820.69;;;7.86;94.58
84083;BME280;74174;52.224;6.878;2023-11-21T00:23:50;100813.59;;;7.86;93.88
84083;BME280;74174;52.224;6.878;2023-11-21T00:26:16;100824.56;;;7.90;94.29
84083;BME280;74174;52.224;6.878;2023-11-21T00:28:42;100823.19;;;7.94;94.23
84083;BME280;74174;52.224;6.878;2023-11-21T00:31:07;100797.31;;;7.83;94.22
84083;BME280;74174;52.224;6.878;2023-11-21T00:33:32;100810.44;;;7.97;95.25
84083;BME280;74174;52.224;6.878;2023-11-21T00:35:58;100811.03;;;7.99;94.76
84083;BME280;74174;52.224;6.878;2023-11-21T00:38:23;100808.00;;;7.96;95.44
84083;BME280;74174;52.224;6.878;2023-11-21T00:40:49;100822.03;;;8.03;94.71
84083;BME280;74174;52.224;6.878;2023-11-21T00:43:14;100816.75;;;8.03;94.62
84083;BME280;74174;52.224;6.878;2023-11-21T00:45:40;100816.75;;;8.03;94.64
84083;BME280;74174;52.224;6.878;2023-11-21T00:48:06;100817.38;;;8.05;94.95
84083;BME280;74174;52.224;6.878;2023-11-21T00:50:33;100816.97;;;8.08;94.67
84083;BME280;74174;52.224;6.878;2023-11-21T00:52:58;100820.03;;;8.05;94.92
84083;BME280;74174;52.224;6.878;2023-11-21T00:55:24;100820.19;;;8.03;95.13
84083;BME280;74174;52.224;6.878;2023-11-21T00:57:50;100827.94;;;8.05;94.38
84083;BME280;74174;52.224;6.878;2023-11-21T01:00:16;100823.03;;;8.02;95.22
84083;BME280;74174;52.224;6.878;2023-11-21T01:02:45;100828.94;;;8.04;96.03
84083;BME280;74174;52.224;6.878;2023-11-21T01:05:12;100829.56;;;8.06;95.23
84083;BME280;74174;52.224;6.878;2023-11-21T01:07:38;100830.81;;;8.10;95.69
84083;BME280;74174;52.224;6.878;2023-11-21T01:10:03;100838.97;;;8.15;95.47
84083;BME280;74174;52.224;6.878;2023-11-21T01:12:33;100843.38;;;8.08;94.73
84083;BME280;74174;52.224;6.878;2023-11-21T01:14:59;100855.38;;;8.10;95.26
84083;BME280;74174;52.224;6.878;2023-11-21T01:17:25;100857.19;;;8.10;94.75
84083;BME280;74174;52.224;6.878;2023-11-21T01:19:51;100858.47;;;8.14;95.54
84083;BME280;74174;52.224;6.878;2023-11-21T01:22:16;100855.81;;;8.14;94.84
84083;BME280;74174;52.224;6.878;2023-11-21T01:24:43;100861.72;;;8.16;95.23
84083;BME280;74174;52.224;6.878;2023-11-21T01:27:08;100865.97;;;8.17;95.16
84083;BME280;74174;52.224;6.878;2023-11-21T01:29:34;100878.19;;;8.18;94.42
84083;BME280;74174;52.224;6.878;2023-11-21T01:32:01;100871.72;;;8.20;94.86
84083;BME280;74174;52.224;6.878;2023-11-21T01:34:27;100867.63;;;8.18;95.14
84083;BME280;74174;52.224;6.878;2023-11-21T01:36:52;100875.97;;;8.21;94.74
84083;BME280;74174;52.224;6.878;2023-11-21T01:39:18;100875.59;;;8.24;94.79
84083;BME280;74174;52.224;6.878;2023-11-21T01:41:49;100873.44;;;8.28;95.37
84083;BME280;74174;52.224;6.878;2023-11-21T01:44:15;100877.06;;;8.27;95.29
84083;BME280;74174;52.224;6.878;2023-11-21T01:46:42;100884.78;;;8.28;94.72
84083;BME280;74174;52.224;6.878;2023-11-21T01:49:09;100888.44;;;8.27;95.12
84083;BME280;74174;52.224;6.878;2023-11-21T01:51:38;100885.44;;;8.30;95.49
84083;BME280;74174;52.224;6.878;2023-11-21T01:54:04;100889.97;;;8.43;94.95
84083;BME280;74174;52.224;6.878;2023-11-21T01:56:30;100897.03;;;8.36;95.28
84083;BME280;74174;52.224;6.878;2023-11-21T01:58:57;100900.06;;;8.33;94.92
84083;BME280;74174;52.224;6.878;2023-11-21T02:01:22;100908.16;;;8.31;94.28
84083;BME280;74174;52.224;6.878;2023-11-21T02:03:48;100897.22;;;8.34;95.28
84083;BME280;74174;52.224;6.878;2023-11-21T02:06:13;100898.44;;;8.32;95.13
84083;BME280;74174;52.224;6.878;2023-11-21T02:08:39;100903.72;;;8.32;95.12
84083;BME280;74174;52.224;6.878;2023-11-21T02:11:05;100899.03;;;8.34;95.28
84083;BME280;74174;52.224;6.878;2023-11-21T02:13:31;100902.31;;;8.36;95.01
84083;BME280;74174;52.224;6.878;2023-11-21T02:15:57;100903.34;;;8.35;95.62
84083;BME280;74174;52.224;6.878;2023-11-21T02:18:23;100897.84;;;8.37;95.48
84083;BME280;74174;52.224;6.878;2023-11-21T02:20:48;100910.22;;;8.36;95.23
84083;BME280;74174;52.224;6.878;2023-11-21T02:23:14;100902.31;;;8.36;94.97
84083;BME280;74174;52.224;6.878;2023-11-21T02:25:39;100902.75;;;8.40;95.54
84083;BME280;74174;52.224;6.878;2023-11-21T02:28:08;100903.75;;;8.39;94.75
84083;BME280;74174;52.224;6.878;2023-11-21T02:30:33;100898.66;;;8.37;94.92
84083;BME280;74174;52.224;6.878;2023-11-21T02:33:00;100912.28;;;8.41;95.46
84083;BME280;74174;52.224;6.878;2023-11-21T02:35:26;100904.94;;;8.36;94.92
84083;BME280;74174;52.224;6.878;2023-11-21T02:37:52;100909.03;;;8.39;95.05
84083;BME280;74174;52.224;6.878;2023-11-21T02:40:17;100904.38;;;8.41;95.33
84083;BME280;74174;52.224;6.878;2023-11-21T02:42:52;100908.03;;;8.40;95.13
84083;BME280;74174;52.224;6.878;2023-11-21T02:45:19;100898.84;;;8.35;95.89
84083;BME280;74174;52.224;6.878;2023-11-21T02:47:46;100900.69;;;8.35;94.97
84083;BME280;74174;52.224;6.878;2023-11-21T02:50:11;100908.66;;;8.42;95.21
84083;BME280;74174;52.224;6.878;2023-11-21T02:52:37;100902.53;;;8.41;95.29
84083;BME280;74174;52.224;6.878;2023-11-21T02:55:04;100904.13;;;8.35;95.65
84083;BME280;74174;52.224;6.878;2023-11-21T02:57:29;100920.41;;;8.39;95.57
84083;BME280;74174;52.224;6.878;2023-11-21T02:59:55;100919.78;;;8.37;95.50
84083;BME280;74174;52.224;6.878;2023-11-21T03:02:21;100922.06;;;8.40;95.16
84083;BME280;74174;52.224;6.878;2023-11-21T03:04:47;100923.69;;;8.41;95.81
84083;BME280;74174;52.224;6.878;2023-11-21T03:07:14;100922.84;;;8.41;95.28
84083;BME280;74174;52.224;6.878;2023-11-21T03:09:40;100914.56;;;8.44;95.45
84083;BME280;74174;52.224;6.878;2023-11-21T03:12:05;100924.91;;;8.45;95.47
84083;BME280;74174;52.224;6.878;2023-11-21T03:14:31;100931.03;;;8.46;94.76
84083;BME280;74174;52.224;6.878;2023-11-21T03:16:57;100933.69;;;8.52;95.21
84083;BME280;74174;52.224;6.878;2023-11-21T03:19:22;100935.31;;;8.47;95.17
84083;BME280;74174;52.224;6.878;2023-11-21T03:21:48;100931.84;;;8.46;95.30
84083;BME280;74174;52.224;6.878;2023-11-21T03:24:14;100939.19;;;8.51;95.04
84083;BME280;74174;52.224;6.878;2023-11-21T03:26:44;100942.41;;;8.46;94.62
84083;BME280;74174;52.224;6.878;2023-11-21T03:29:10;100943.66;;;8.50;95.17
84083;BME280;74174;52.224;6.878;2023-11-21T03:31:35;100949.94;;;8.49;94.97
84083;BME280;74174;52.224;6.878;2023-11-21T03:34:01;100943.59;;;8.44;95.03
84083;BME280;74174;52.224;6.878;2023-11-21T03:36:26;100958.88;;;8.48;95.38
84083;BME280;74174;52.224;6.878;2023-11-21T03:38:52;100949.31;;;8.47;95.44
84083;BME280;74174;52.224;6.878;2023-11-21T03:41:17;100955.00;;;8.44;95.55
84083;BME280;74174;52.224;6.878;2023-11-21T03:43:43;100953.78;;;8.47;95.29
84083;BME280;74174;52.224;6.878;2023-11-21T03:46:09;100948.69;;;8.45;95.40
84083;BME280;74174;52.224;6.878;2023-11-21T03:48:35;100947.06;;;8.44;95.78
84083;BME280;74174;52.224;6.878;2023-11-21T03:51:00;100937.13;;;8.46;95.22
84083;BME280;74174;52.224;6.878;2023-11-21T03:53:26;100946.66;;;8.47;95.35
84083;BME280;74174;52.224;6.878;2023-11-21T03:55:51;100953.00;;;8.53;94.76
84083;BME280;74174;52.224;6.878;2023-11-21T03:58:16;100954.78;;;8.46;95.52
84083;BME280;74174;52.224;6.878;2023-11-21T04:00:42;100958.25;;;8.46;94.90
84083;BME280;74174;52.224;6.878;2023-11-21T04:03:07;100958.25;;;8.46;95.26
84083;BME280;74174;52.224;6.878;2023-11-21T04:05:32;100959.88;;;8.47;95.02
84083;BME280;74174;52.224;6.878;2023-11-21T04:07:58;100962.47;;;8.41;95.27
84083;BME280;74174;52.224;6.878;2023-11-21T04:10:23;100959.66;;;8.42;95.03
84083;BME280;74174;52.224;6.878;2023-11-21T04:12:49;100959.44;;;8.44;95.62
84083;BME280;74174;52.224;6.878;2023-11-21T04:15:14;100961.88;;;8.45;95.22
84083;BME280;74174;52.224;6.878;2023-11-21T04:17:41;100962.91;;;8.44;95.38
84083;BME280;74174;52.224;6.878;2023-11-21T04:20:07;100975.09;;;8.45;95.10
84083;BME280;74174;52.224;6.878;2023-11-21T04:22:41;100974.72;;;8.48;95.20
84083;BME280;74174;52.224;6.878;2023-11-21T04:25:14;100974.88;;;8.40;95.19
84083;BME280;74174;52.224;6.878;2023-11-21T04:27:40;100981.78;;;8.41;95.19
84083;BME280;74174;52.224;6.878;2023-11-21T04:30:06;100976.50;;;8.41;95.47
84083;BME280;74174;52.224;6.878;2023-11-21T04:32:31;100980.78;;;8.42;95.31
84083;BME280;74174;52.224;6.878;2023-11-21T04:34:57;100989.06;;;8.39;95.81
84083;BME280;74174;52.224;6.878;2023-11-21T04:37:23;100992.13;;;8.43;95.41
84083;BME280;74174;52.224;6.878;2023-11-21T04:39:48;100998.25;;;8.43;95.02
84083;BME280;74174;52.224;6.878;2023-11-21T04:42:14;100989.91;;;8.40;94.79
84083;BME280;74174;52.224;6.878;2023-11-21T04:44:39;100995.19;;;8.40;94.98
84083;BME280;74174;52.224;6.878;2023-11-21T04:47:06;100993.16;;;8.42;95.75
84083;BME280;74174;52.224;6.878;2023-11-21T04:49:32;101000.63;;;8.38;95.50
84083;BME280;74174;52.224;6.878;2023-11-21T04:51:58;101004.09;;;8.39;95.48
84083;BME280;74174;52.224;6.878;2023-11-21T04:54:23;101008.38;;;8.40;94.97
84083;BME280;74174;52.224;6.878;2023-11-21T04:56:49;101022.78;;;8.37;95.21
84083;BME280;74174;52.224;6.878;2023-11-21T04:59:14;101003.94;;;8.40;95.28
84083;BME280;74174;52.224;6.878;2023-11-21T05:01:39;101020.97;;;8.38;95.18
84083;BME280;74174;52.224;6.878;2023-11-21T05:04:05;101034.34;;;8.36;95.27
84083;BME280;74174;52.224;6.878;2023-11-21T05:06:31;101034.53;;;8.34;95.56
84083;BME280;74174;52.224;6.878;2023-11-21T05:08:57;101037.19;;;8.34;95.04
84083;BME280;74174;52.224;6.878;2023-11-21T05:11:25;101032.84;;;8.27;95.53
84083;BME280;74174;52.224;6.878;2023-11-21T05:13:50;101043.56;;;8.25;95.51
84083;BME280;74174;52.224;6.878;2023-11-21T05:16:16;101046.03;;;8.27;96.11
84083;BME280;74174;52.224;6.878;2023-11-21T05:18:41;101056.50;;;8.35;95.63
84083;BME280;74174;52.224;6.878;2023-11-21T05:21:07;101048.47;;;8.28;95.53
84083;BME280;74174;52.224;6.878;2023-11-21T05:23:33;101056.84;;;8.32;95.79
84083;BME280;74174;52.224;6.878;2023-11-21T05:25:59;101065.78;;;8.31;95.58
84083;BME280;74174;52.224;6.878;2023-11-21T05:28:24;101064.69;;;8.25;95.46
84083;BME280;74174;52.224;6.878;2023-11-21T05:30:50;101071.72;;;8.33;96.40
84083;BME280;74174;52.224;6.878;2023-11-21T05:33:16;101079.22;;;8.36;95.75
84083;BME280;74174;52.224;6.878;2023-11-21T05:35:41;101080.06;;;8.37;96.03
84083;BME280;74174;52.224;6.878;2023-11-21T05:38:07;101083.25;;;8.32;95.83
84083;BME280;74174;52.224;6.878;2023-11-21T05:40:32;101087.91;;;8.30;95.49
84083;BME280;74174;52.224;6.878;2023-11-21T05:42:58;101095.47;;;8.33;95.86
84083;BME280;74174;52.224;6.878;2023-11-21T05:45:24;101086.53;;;8.34;95.86
84083;BME280;74174;52.224;6.878;2023-11-21T05:47:49;101093.47;;;8.35;95.41
84083;BME280;74174;52.224;6.878;2023-11-21T05:50:16;101096.88;;;8.35;95.88
84083;BME280;74174;52.224;6.878;2023-11-21T05:52:43;101095.28;;;8.34;95.48
84083;BME280;74174;52.224;6.878;2023-11-21T05:55:09;101097.28;;;8.32;96.11
84083;BME280;74174;52.224;6.878;2023-11-21T05:57:38;101100.75;;;8.33;95.96
84083;BME280;74174;52.224;6.878;2023-11-21T06:00:05;101106.81;;;8.33;95.60
84083;BME280;74174;52.224;6.878;2023-11-21T06:02:39;101100.50;;;8.28;95.85
84083;BME280;74174;52.224;6.878;2023-11-21T06:05:06;101109.22;;;8.28;95.92
84083;BME280;74174;52.224;6.878;2023-11-21T06:07:32;101121.22;;;8.31;95.61
84083;BME280;74174;52.224;6.878;2023-11-21T06:09:57;101116.59;;;8.33;95.61
84083;BME280;74174;52.224;6.878;2023-11-21T06:12:22;101111.94;;;8.35;96.06
84083;BME280;74174;52.224;6.878;2023-11-21T06:14:48;101116.19;;;8.36;95.90
84083;BME280;74174;52.224;6.878;2023-11-21T06:17:13;101113.56;;;8.36;95.30
84083;BME280;74174;52.224;6.878;2023-11-21T06:19:39;101117.84;;;8.37;95.76
84083;BME280;74174;52.224;6.878;2023-11-21T06:22:05;101120.66;;;8.35;95.34
84083;BME280;74174;52.224;6.878;2023-11-21T06:24:31;101122.50;;;8.35;95.55
84083;BME280;74174;52.224;6.878;2023-11-21T06:26:57;101129.97;;;8.31;95.57
84083;BME280;74174;52.224;6.878;2023-11-21T06:29:22;101136.06;;;8.32;95.42
84083;BME280;74174;52.224;6.878;2023-11-21T06:31:48;101134.41;;;8.31;95.56
84083;BME280;74174;52.224;6.878;2023-11-21T06:34:13;101149.28;;;8.32;95.83
84083;BME280;74174;52.224;6.878;2023-11-21T06:36:39;101155.53;;;8.31;95.02
84083;BME280;74174;52.224;6.878;2023-11-21T06:39:04;101157.94;;;8.26;95.33
84083;BME280;74174;52.224;6.878;2023-11-21T06:41:33;101169.78;;;8.30;95.09
84083;BME280;74174;52.224;6.878;2023-11-21T06:43:59;101164.50;;;8.30;95.32
84083;BME280;74174;52.224;6.878;2023-11-21T06:46:24;101171.38;;;8.31;95.23
84083;BME280;74174;52.224;6.878;2023-11-21T06:48:50;101156.63;;;8.22;95.58
84083;BME280;74174;52.224;6.878;2023-11-21T06:51:16;101170.19;;;8.33;95.55
84083;BME280;74174;52.224;6.878;2023-11-21T06:53:41;101171.22;;;8.32;95.10
84083;BME280;74174;52.224;6.878;2023-11-21T06:56:27;101173.88;;;8.32;95.42
84083;BME280;74174;52.224;6.878;2023-11-21T06:58:52;101172.41;;;8.30;95.73
84083;BME280;74174;52.224;6.878;2023-11-21T07:01:20;101184.84;;;8.36;95.68
84083;BME280;74174;52.224;6.878;2023-11-21T07:03:46;101180.97;;;8.32;95.59
84083;BME280;74174;52.224;6.878;2023-11-21T07:06:11;101191.97;;;8.35;95.66
84083;BME280;74174;52.224;6.878;2023-11-21T07:08:37;101188.31;;;8.37;95.91
84083;BME280;74174;52.224;6.878;2023-11-21T07:11:03;101194.78;;;8.34;95.49
84083;BME280;74174;52.224;6.878;2023-11-21T07:13:30;101205.00;;;8.37;95.22
84083;BME280;74174;52.224;6.878;2023-11-21T07:15:55;101201.72;;;8.35;95.02
84083;BME280;74174;52.224;6.878;2023-11-21T07:18:21;101211.28;;;8.36;95.79
84083;BME280;74174;52.224;6.878;2023-11-21T07:20:46;101210.09;;;8.39;95.38
84083;BME280;74174;52.224;6.878;2023-11-21T07:23:11;101217.84;;;8.40;95.65
84083;BME280;74174;52.224;6.878;2023-11-21T07:25:37;101205.81;;;8.38;95.34
84083;BME280;74174;52.224;6.878;2023-11-21T07:28:02;101212.09;;;8.37;95.79
84083;BME280;74174;52.224;6.878;2023-11-21T07:30:28;101218.28;;;8.44;95.43
84083;BME280;74174;52.224;6.878;2023-11-21T07:32:53;101221.47;;;8.39;95.02
84083;BME280;74174;52.224;6.878;2023-11-21T07:35:19;101239.41;;;8.44;95.50
84083;BME280;74174;52.224;6.878;2023-11-21T07:37:44;101231.84;;;8.41;95.26
84083;BME280;74174;52.224;6.878;2023-11-21T07:40:10;101242.59;;;8.39;95.58
84083;BME280;74174;52.224;6.878;2023-11-21T07:42:37;101251.78;;;8.43;95.56
84083;BME280;74174;52.224;6.878;2023-11-21T07:45:03;101255.25;;;8.44;95.36
84083;BME280;74174;52.224;6.878;2023-11-21T07:47:28;101266.44;;;8.46;95.53
84083;BME280;74174;52.224;6.878;2023-11-21T07:49:54;101267.47;;;8.45;95.12
84083;BME280;74174;52.224;6.878;2023-11-21T07:52:21;101273.19;;;8.48;95.92
84083;BME280;74174;52.224;6.878;2023-11-21T07:54:47;101279.09;;;8.50;95.83
84083;BME280;74174;52.224;6.878;2023-11-21T07:57:15;101279.09;;;8.50;95.43
84083;BME280;74174;52.224;6.878;2023-11-21T07:59:41;101293.75;;;8.53;95.53
84083;BME280;74174;52.224;6.878;2023-11-21T08:02:06;101291.94;;;8.53;95.65
84083;BME280;74174;52.224;6.878;2023-11-21T08:04:32;101293.56;;;8.54;95.50
84083;BME280;74174;52.224;6.878;2023-11-21T08:06:58;101287.09;;;8.57;96.18
84083;BME280;74174;52.224;6.878;2023-11-21T08:09:23;101301.97;;;8.58;95.35
84083;BME280;74174;52.224;6.878;2023-11-21T08:11:49;101302.59;;;8.60;95.92
84083;BME280;74174;52.224;6.878;2023-11-21T08:14:15;101295.28;;;8.62;95.89
84083;BME280;74174;52.224;6.878;2023-11-21T08:16:40;101303.28;;;8.68;95.74
84083;BME280;74174;52.224;6.878;2023-11-21T08:19:06;101312.44;;;8.66;95.67
84083;BME280;74174;52.224;6.878;2023-11-21T08:21:33;101317.53;;;8.67;95.62
84083;BME280;74174;52.224;6.878;2023-11-21T08:23:59;101307.78;;;8.68;95.88
84083;BME280;74174;52.224;6.878;2023-11-21T08:26:25;101322.47;;;8.70;95.73
84083;BME280;74174;52.224;6.878;2023-11-21T08:28:50;101332.84;;;8.72;95.39
84083;BME280;74174;52.224;6.878;2023-11-21T08:31:23;101327.75;;;8.70;96.15
84083;BME280;74174;52.224;6.878;2023-11-21T08:33:49;101327.97;;;8.75;96.36
84083;BME280;74174;52.224;6.878;2023-11-21T08:36:14;101330.63;;;8.75;96.19
84083;BME280;74174;52.224;6.878;2023-11-21T08:38:40;101337.75;;;8.75;95.97
84083;BME280;74174;52.224;6.878;2023-11-21T08:41:07;101339.84;;;8.79;96.32
84083;BME280;74174;52.224;6.878;2023-11-21T08:43:36;101341.84;;;8.77;95.70
84083;BME280;74174;52.224;6.878;2023-11-21T08:46:07;101338.38;;;8.77;95.94
84083;BME280;74174;52.224;6.878;2023-11-21T08:48:35;101341.47;;;8.80;95.88
84083;BME280;74174;52.224;6.878;2023-11-21T08:51:01;101327.53;;;8.72;95.59
84083;BME280;74174;52.224;6.878;2023-11-21T08:53:26;101351.69;;;8.83;96.15
84083;BME280;74174;52.224;6.878;2023-11-21T08:55:52;101343.94;;;8.82;96.07
84083;BME280;74174;52.224;6.878;2023-11-21T08:58:19;101363.50;;;8.87;95.48
84083;BME280;74174;52.224;6.878;2023-11-21T09:00:44;101360.25;;;8.85;95.48
84083;BME280;74174;52.224;6.878;2023-11-21T09:03:12;101368.16;;;8.85;96.02
84083;BME280;74174;52.224;6.878;2023-11-21T09:05:38;101370.44;;;8.88;95.75
84083;BME280;74174;52.224;6.878;2023-11-21T09:08:04;101372.69;;;8.91;95.33
84083;BME280;74174;52.224;6.878;2023-11-21T09:10:29;101385.13;;;8.91;95.85
84083;BME280;74174;52.224;6.878;2023-11-21T09:12:56;101380.56;;;8.85;96.04
84083;BME280;74174;52.224;6.878;2023-11-21T09:15:22;101384.66;;;8.87;95.49
84083;BME280;74174;52.224;6.878;2023-11-21T09:17:47;101383.94;;;8.93;95.65
84083;BME280;74174;52.224;6.878;2023-11-21T09:20:13;101390.28;;;8.99;95.97
84083;BME280;74174;52.224;6.878;2023-11-21T09:22:40;101389.66;;;8.97;95.52
84083;BME280;74174;52.224;6.878;2023-11-21T09:25:06;101393.75;;;8.99;95.93
84083;BME280;74174;52.224;6.878;2023-11-21T09:27:34;101398.97;;;9.08;95.83
84083;BME280;74174;52.224;6.878;2023-11-21T09:29:59;101405.88;;;9.09;95.68
84083;BME280;74174;52.224;6.878;2023-11-21T09:32:24;101411.78;;;9.11;95.42
84083;BME280;74174;52.224;6.878;2023-11-21T09:34:50;101418.38;;;9.15;95.68
84083;BME280;74174;52.224;6.878;2023-11-21T09:37:16;101415.72;;;9.15;95.92
84083;BME280;74174;52.224;6.878;2023-11-21T09:39:41;101421.44;;;9.18;95.52
84083;BME280;74174;52.224;6.878;2023-11-21T09:42:18;101423.53;;;9.23;94.78
84083;BME280;74174;52.224;6.878;2023-11-21T09:47:26;101418.88;;;9.25;95.20
84083;BME280;74174;52.224;6.878;2023-11-21T09:49:54;101424.25;;;9.31;95.93
84083;BME280;74174;52.224;6.878;2023-11-21T09:52:24;101422.44;;;9.32;95.38
84083;BME280;74174;52.224;6.878;2023-11-21T09:54:52;101431.09;;;9.40;95.32
84083;BME280;74174;52.224;6.878;2023-11-21T09:57:25;101435.56;;;9.40;94.73
84083;BME280;74174;52.224;6.878;2023-11-21T09:59:51;101430.75;;;9.50;94.81
84083;BME280;74174;52.224;6.878;2023-11-21T10:02:21;101438.06;;;9.48;95.02
84083;BME280;74174;52.224;6.878;2023-11-21T10:04:47;101445.38;;;9.46;95.45
84083;BME280;74174;52.224;6.878;2023-11-21T10:07:14;101445.66;;;9.51;95.14
84083;BME280;74174;52.224;6.878;2023-11-21T10:09:42;101449.38;;;9.56;94.77
84083;BME280;74174;52.224;6.878;2023-11-21T10:12:09;101462.84;;;9.61;94.88
84083;BME280;74174;52.224;6.878;2023-11-21T10:14:41;101457.13;;;9.58;95.07
84083;BME280;74174;52.224;6.878;2023-11-21T10:17:10;101467.34;;;9.61;94.54
84083;BME280;74174;52.224;6.878;2023-11-21T10:19:38;101468.25;;;9.68;94.13
84083;BME280;74174;52.224;6.878;2023-11-21T10:22:05;101466.94;;;9.64;94.68
84083;BME280;74174;52.224;6.878;2023-11-21T10:24:32;101475.63;;;9.72;94.46
84083;BME280;74174;52.224;6.878;2023-11-21T10:26:58;101478.88;;;9.74;93.60
84083;BME280;74174;52.224;6.878;2023-11-21T10:29:23;101470.88;;;9.68;93.85
84083;BME280;74174;52.224;6.878;2023-11-21T10:31:50;101480.44;;;9.69;94.49
84083;BME280;74174;52.224;6.878;2023-11-21T10:34:18;101476.34;;;9.66;95.05
84083;BME280;74174;52.224;6.878;2023-11-21T10:36:44;101468.94;;;9.77;93.63
84083;BME280;74174;52.224;6.878;2023-11-21T10:39:13;101467.69;;;9.72;94.18
84083;BME280;74174;52.224;6.878;2023-11-21T10:41:44;101472.41;;;9.77;93.90
84083;BME280;74174;52.224;6.878;2023-11-21T10:44:10;101478.25;;;9.72;94.58
84083;BME280;74174;52.224;6.878;2023-11-21T10:46:36;101478.53;;;9.78;93.84
84083;BME280;74174;52.224;6.878;2023-11-21T10:49:03;101490.22;;;9.90;94.00
84083;BME280;74174;52.224;6.878;2023-11-21T10:51:29;101490.44;;;9.88;93.99
84083;BME280;74174;52.224;6.878;2023-11-21T10:53:54;101499.78;;;9.84;93.72
84083;BME280;74174;52.224;6.878;2023-11-21T10:56:23;101493.22;;;9.80;92.95
84083;BME280;74174;52.224;6.878;2023-11-21T10:58:50;101496.50;;;9.82;93.17
84083;BME280;74174;52.224;6.878;2023-11-21T11:01:19;101491.19;;;9.82;93.32
84083;BME280;74174;52.224;6.878;2023-11-21T11:03:50;101496.91;;;9.86;93.14
84083;BME280;74174;52.224;6.878;2023-11-21T11:06:16;101506.88;;;9.84;93.10
84083;BME280;74174;52.224;6.878;2023-11-21T11:08:42;101509.47;;;9.77;93.35
84083;BME280;74174;52.224;6.878;2023-11-21T11:11:09;101514.81;;;9.84;93.30
84083;BME280;74174;52.224;6.878;2023-11-21T11:13:37;101518.03;;;9.79;93.94
84083;BME280;74174;52.224;6.878;2023-11-21T11:16:03;101515.03;;;9.82;93.63
84083;BME280;74174;52.224;6.878;2023-11-21T11:18:32;101513.56;;;9.80;92.53
84083;BME280;74174;52.224;6.878;2023-11-21T11:21:14;101528.00;;;9.77;94.16
84083;BME280;74174;52.224;6.878;2023-11-21T11:24:15;101521.94;;;9.83;93.89
84083;BME280;74174;52.224;6.878;2023-11-21T11:26:51;101523.84;;;9.89;93.44
84083;BME280;74174;52.224;6.878;2023-11-21T11:34:50;101521.69;;;9.78;92.69
84083;BME280;74174;52.224;6.878;2023-11-21T11:37:19;101523.06;;;9.74;93.54
84083;BME280;74174;52.224;6.878;2023-11-21T11:39:46;101529.81;;;9.77;93.05
84083;BME280;74174;52.224;6.878;2023-11-21T11:42:16;101534.75;;;9.80;93.73
84083;BME280;74174;52.224;6.878;2023-11-21T11:55:18;101552.66;;;9.78;92.41
84083;BME280;74174;52.224;6.878;2023-11-21T11:57:55;101552.38;;;9.72;92.62
84083;BME280;74174;52.224;6.878;2023-11-21T12:00:23;101560.38;;;9.79;92.38
84083;BME280;74174;52.224;6.878;2023-11-21T12:03:01;101561.78;;;9.75;92.92
84083;BME280;74174;52.224;6.878;2023-11-21T12:05:35;101568.53;;;9.78;93.09
84083;BME280;74174;52.224;6.878;2023-11-21T12:08:04;101580.03;;;9.70;93.46
84083;BME280;74174;52.224;6.878;2023-11-21T12:10:32;101572.19;;;9.62;93.54
84083;BME280;74174;52.224;6.878;2023-11-21T12:13:05;101596.06;;;9.68;92.31
84083;BME280;74174;52.224;6.878;2023-11-21T12:15:33;101591.53;;;9.48;93.33
84083;BME280;74174;52.224;6.878;2023-11-21T12:17:59;101601.59;;;9.38;92.99
84083;BME280;74174;52.224;6.878;2023-11-21T12:20:25;101602.84;;;9.27;92.49
84083;BME280;74174;52.224;6.878;2023-11-21T12:22:53;101606.94;;;9.30;92.20
84083;BME280;74174;52.224;6.878;2023-11-21T12:25:20;101611.94;;;9.25;92.34
84083;BME280;74174;52.224;6.878;2023-11-21T12:27:48;101617.44;;;9.23;92.06
84083;BME280;74174;52.224;6.878;2023-11-21T12:30:15;101620.13;;;9.00;93.77
84083;BME280;74174;52.224;6.878;2023-11-21T12:32:43;101617.13;;;9.03;93.67
84083;BME280;74174;52.224;6.878;2023-11-21T12:35:09;101625.97;;;9.11;92.28
84083;BME280;74174;52.224;6.878;2023-11-21T12:37:40;101620.97;;;9.16;92.20
84083;BME280;74174;52.224;6.878;2023-11-21T12:40:07;101623.53;;;9.09;92.72
84083;BME280;74174;52.224;6.878;2023-11-21T12:42:47;101623.81;;;9.14;92.70
84083;BME280;74174;52.224;6.878;2023-11-21T12:47:48;101627.97;;;9.09;93.03
84083;BME280;74174;52.224;6.878;2023-11-21T12:50:17;101638.41;;;9.10;91.49
84083;BME280;74174;52.224;6.878;2023-11-21T12:52:47;101633.22;;;9.17;91.57
84083;BME280;74174;52.224;6.878;2023-11-21T12:55:22;101643.69;;;9.10;92.08
84083;BME280;74174;52.224;6.878;2023-11-21T12:57:50;101651.72;;;9.17;92.25
84083;BME280;74174;52.224;6.878;2023-11-21T13:00:18;101653.53;;;9.16;91.50
84083;BME280;74174;52.224;6.878;2023-11-21T13:02:56;101654.72;;;9.14;92.12
84083;BME280;74174;52.224;6.878;2023-11-21T13:05:27;101646.84;;;9.05;91.86
84083;BME280;74174;52.224;6.878;2023-11-21T13:07:54;101664.34;;;9.07;92.46
84083;BME280;74174;52.224;6.878;2023-11-21T13:10:24;101660.00;;;9.14;92.08
84083;BME280;74174;52.224;6.878;2023-11-21T13:13:00;101664.47;;;9.13;92.18
84083;BME280;74174;52.224;6.878;2023-11-21T13:15:26;101660.00;;;9.14;92.05
84083;BME280;74174;52.224;6.878;2023-11-21T13:17:53;101661.66;;;9.15;91.43
84083;BME280;74174;52.224;6.878;2023-11-21T13:20:19;101670.78;;;9.12;89.82